Bhakkar Weather



Bhakkar's Current Weather

Temprature 21.449o clear sky

clear sky

Rain: 0 %

Min Temprature21.449o
Max Temprature21.449o
Humidity32
Wind Speed2.76 m/h
Sun Rise06:49:34
Sun Set18:08:59
Current Time: 23-Feb-2019 16:14:22
Lat/Lon: 31.63, 71.07




Bhakkar's Geo Location




Bhakkar's Weather Forecast

Time Overall Temp Min Temp Max Temp Humidity Wind Speed Rain
23-Feb-2019 (Sat)
17:00:00 clear sky 21.560 21.449 21.560 32 2.76 m/h 0 %
20:00:00 clear sky 13.660 13.583 13.660 68 2.92 m/h 0 %
23:00:00 clear sky 9.620 9.565 9.620 86 1.32 m/h 0 %
24-Feb-2019 (Sun)
02:00:00 clear sky 7.090 7.060 7.090 80 1.31 m/h 0 %
05:00:00 clear sky 5.867 5.867 5.867 79 1.41 m/h 0 %
08:00:00 clear sky 8.103 8.103 8.103 78 1.51 m/h 0 %
11:00:00 clear sky 18.599 18.599 18.599 49 1.96 m/h 0 %
14:00:00 clear sky 21.881 21.881 21.881 44 2.07 m/h 0 %
17:00:00 clear sky 21.871 21.871 21.871 34 3.15 m/h 0 %
20:00:00 light rain 13.243 13.243 13.243 71 2.11 m/h 36 %
23:00:00 light rain 9.461 9.461 9.461 94 4.76 m/h 73 %
25-Feb-2019 (Mon)
02:00:00 light rain 7.255 7.255 7.255 96 1.77 m/h 12 %
05:00:00 light rain 6.177 6.177 6.177 94 1.86 m/h 2 %
08:00:00 light rain 8.170 8.170 8.170 93 2.12 m/h 11 %
11:00:00 light rain 14.272 14.272 14.272 64 2.31 m/h 11 %
14:00:00 clear sky 18.273 18.273 18.273 55 3.27 m/h 0 %
17:00:00 clear sky 17.412 17.412 17.412 49 3.96 m/h 0 %
20:00:00 light rain 10.873 10.873 10.873 80 1.76 m/h 114 %
23:00:00 clear sky 7.067 7.067 7.067 87 1.61 m/h 0 %
26-Feb-2019 (Tue)
02:00:00 few clouds 5.776 5.776 5.776 83 2.41 m/h 0 %
05:00:00 broken clouds 5.597 5.597 5.597 84 1.76 m/h 0 %
08:00:00 overcast clouds 7.682 7.682 7.682 82 1.67 m/h 0 %
11:00:00 light rain 13.267 13.267 13.267 75 2.17 m/h 2 %
14:00:00 few clouds 15.871 15.871 15.871 59 3.46 m/h 0 %
17:00:00 clear sky 16.339 16.339 16.339 47 2.91 m/h 0 %
20:00:00 few clouds 9.836 9.836 9.836 66 2.32 m/h 0 %
23:00:00 clear sky 7.598 7.598 7.598 74 2.52 m/h 0 %
27-Feb-2019 (Wed)
02:00:00 clear sky 4.381 4.381 4.381 83 1.16 m/h 0 %
05:00:00 clear sky 2.694 2.694 2.694 79 1.2 m/h 0 %
08:00:00 clear sky 5.015 5.015 5.015 78 1.07 m/h 0 %
11:00:00 clear sky 15.070 15.070 15.070 57 1.76 m/h 0 %
14:00:00 clear sky 18.861 18.861 18.861 49 2.65 m/h 0 %
17:00:00 clear sky 19.023 19.023 19.023 35 2.76 m/h 0 %
20:00:00 scattered clouds 13.117 13.117 13.117 51 3.77 m/h 0 %
23:00:00 overcast clouds 10.716 10.716 10.716 75 2.67 m/h 0 %
28-Feb-2019 (Thu)
02:00:00 light rain 9.991 9.991 9.991 88 1.56 m/h 43 %
05:00:00 light rain 9.513 9.513 9.513 91 2.01 m/h 56 %
08:00:00 light rain 9.940 9.940 9.940 91 3.11 m/h 182 %
11:00:00 light rain 11.847 11.847 11.847 87 2.61 m/h 148 %
14:00:00 moderate rain 12.279 12.279 12.279 94 1.17 m/h 506 %


Bhakkar's Tourist Spots

Historical Places in Bhakkar

Famous Cities (60)